^^
Station Historical Data
Daily Summary for January 1, 2021 Units:  English    Metric   Both
Daily Weekly Monthly Yearly
  High: Low: Average:
Temperature: 32.6 °F 20 °F 27.1 °F
Dew Point: 30.5 °F 16.2 °F 23.2 °F
Humidity: 92% 79% 85%
Wind Speed: 4mph 0mph 1.4mph
Wind Gust: 9mph - -
Wind- - East
Pressure: 30.42 in 29.80 in -
Precipitation: 0.29 in    
 
 
Tabular Data for January 1, 2021
Time Temperature Dew Point Pressure Wind Wind Speed Wind Gust Humidity Rainfall Rate (Hourly) solar
00:00 23.6 °F 19.2 °F 30.41 in Calm     83% 0.00 in 0 W/m2
00:05 23.5 °F 19.1 °F 30.40 in Calm   1 mph 83% 0.00 in 0 W/m2
00:10 23.5 °F 19.4 °F 30.40 in SW 1 mph 1 mph 84% 0.00 in 0 W/m2
00:15 23.5 °F 19.4 °F 30.40 in SW 1 mph 1 mph 84% 0.00 in 0 W/m2
00:20 23.5 °F 19.4 °F 30.39 in SW 1 mph 1 mph 84% 0.00 in 0 W/m2
00:25 23.5 °F 19.4 °F 30.39 in SW 1 mph 1 mph 84% 0.00 in 0 W/m2
00:30 23.4 °F 19.3 °F 30.40 in Calm     84% 0.00 in 0 W/m2
00:35 23.3 °F 19.2 °F 30.40 in Calm     84% 0.00 in 0 W/m2
00:40 23.2 °F 19.4 °F 30.41 in Calm     85% 0.00 in 0 W/m2
00:45 23 °F 19.2 °F 30.41 in Calm   1 mph 85% 0.00 in 0 W/m2
00:50 22.9 °F 19.3 °F 30.40 in Calm     86% 0.00 in 0 W/m2
00:55 22.8 °F 19.2 °F 30.41 in SW 1 mph 1 mph 86% 0.00 in 0 W/m2
01:00 22.8 °F 19.2 °F 30.40 in SW 1 mph 1 mph 86% 0.00 in 0 W/m2
01:05 22.8 °F 19.2 °F 30.41 in SW 1 mph 1 mph 86% 0.00 in 0 W/m2
01:10 22.8 °F 19.2 °F 30.40 in Calm     86% 0.00 in 0 W/m2
01:15 22.7 °F 19.1 °F 30.40 in Calm   1 mph 86% 0.00 in 0 W/m2
01:20 22.8 °F 19.2 °F 30.40 in Calm     86% 0.00 in 0 W/m2
01:25 22.8 °F 19.2 °F 30.40 in Calm     86% 0.00 in 0 W/m2
01:30 22.8 °F 19.2 °F 30.41 in Calm     86% 0.00 in 0 W/m2
01:35 22.7 °F 19.1 °F 30.41 in Calm     86% 0.00 in 0 W/m2
01:40 22.6 °F 19 °F 30.41 in Calm     86% 0.00 in 0 W/m2
01:45 22.5 °F 18.7 °F 30.41 in NNE 1 mph 1 mph 85% 0.00 in 0 W/m2
01:50 22.4 °F 18.6 °F 30.41 in NNE 1 mph 1 mph 85% 0.00 in 0 W/m2
01:55 22.4 °F 18.6 °F 30.41 in NE 1 mph 1 mph 85% 0.00 in 0 W/m2
02:00 22.3 °F 18.5 °F 30.41 in Calm     85% 0.00 in 0 W/m2
02:05 22.3 °F 18.5 °F 30.41 in Calm     85% 0.00 in 0 W/m2
02:10 22.3 °F 18.5 °F 30.41 in NNW 1 mph 1 mph 85% 0.00 in 0 W/m2
02:15 22.2 °F 18.4 °F 30.41 in Calm   1 mph 85% 0.00 in 0 W/m2
02:20 22.2 °F 18.4 °F 30.41 in Calm     85% 0.00 in 0 W/m2
02:25 22.2 °F 18.4 °F 30.41 in Calm     85% 0.00 in 0 W/m2
02:30 22.2 °F 18.4 °F 30.41 in Calm   2 mph 85% 0.00 in 0 W/m2
02:35 22.1 °F 18.3 °F 30.42 in NNE 1 mph 2 mph 85% 0.00 in 0 W/m2
02:40 22 °F 18.2 °F 30.42 in NE 1 mph 1 mph 85% 0.00 in 0 W/m2
02:45 21.9 °F 18.1 °F 30.42 in ENE 1 mph 1 mph 85% 0.00 in 0 W/m2
02:50 21.9 °F 18.1 °F 30.42 in South 1 mph 1 mph 85% 0.00 in 0 W/m2
02:55 21.8 °F 18 °F 30.42 in Calm   1 mph 85% 0.00 in 0 W/m2
03:00 21.8 °F 18 °F 30.42 in Calm     85% 0.00 in 0 W/m2
03:05 21.8 °F 18 °F 30.42 in Calm     85% 0.00 in 0 W/m2
03:10 21.8 °F 18 °F 30.42 in Calm     85% 0.00 in 0 W/m2
03:15 21.8 °F 18 °F 30.42 in Calm   1 mph 85% 0.00 in 0 W/m2
03:20 21.8 °F 18.3 °F 30.42 in South 1 mph 1 mph 86% 0.00 in 0 W/m2
03:25 21.8 °F 18.3 °F 30.42 in South 1 mph 2 mph 86% 0.00 in 0 W/m2
03:30 21.7 °F 17.9 °F 30.42 in South 1 mph 1 mph 85% 0.00 in 0 W/m2
03:35 21.6 °F 17.8 °F 30.41 in South 1 mph 1 mph 85% 0.00 in 0 W/m2
03:40 21.6 °F 17.8 °F 30.41 in Calm     85% 0.00 in 0 W/m2
03:45 21.5 °F 17.7 °F 30.41 in Calm   1 mph 85% 0.00 in 0 W/m2
03:50 21.4 °F 17.6 °F 30.41 in Calm   1 mph 85% 0.00 in 0 W/m2
03:55 21.5 °F 17.7 °F 30.41 in Calm   1 mph 85% 0.00 in 0 W/m2
04:00 21.5 °F 18 °F 30.40 in South 1 mph 2 mph 86% 0.00 in 0 W/m2
04:05 21.5 °F 18 °F 30.40 in South 1 mph 2 mph 86% 0.00 in 0 W/m2
04:10 21.5 °F 18 °F 30.40 in South 1 mph 2 mph 86% 0.00 in 0 W/m2
04:15 21.6 °F 17.8 °F 30.40 in South 1 mph 2 mph 85% 0.00 in 0 W/m2
04:20 21.6 °F 17.8 °F 30.39 in SSE 1 mph 1 mph 85% 0.00 in 0 W/m2
04:25 21.6 °F 17.8 °F 30.39 in SSE 1 mph 1 mph 85% 0.00 in 0 W/m2
04:30 21.5 °F 17.7 °F 30.39 in Calm   1 mph 85% 0.00 in 0 W/m2
04:35 21.5 °F 17.7 °F 30.39 in Calm   1 mph 85% 0.00 in 0 W/m2
04:40 21.5 °F 17.7 °F 30.39 in Calm     85% 0.00 in 0 W/m2
04:45 21.5 °F 17.7 °F 30.39 in Calm   1 mph 85% 0.00 in 0 W/m2
04:50 21.4 °F 17.6 °F 30.38 in Calm     85% 0.00 in 0 W/m2
04:55 21.3 °F 17.5 °F 30.39 in Calm     85% 0.00 in 0 W/m2
05:00 21.4 °F 17.6 °F 30.39 in Calm     85% 0.00 in 0 W/m2
05:05 21.3 °F 17.5 °F 30.39 in Calm     85% 0.00 in 0 W/m2
05:10 21.3 °F 17.5 °F 30.39 in Calm     85% 0.00 in 0 W/m2
05:15 21.3 °F 17.8 °F 30.39 in Calm     86% 0.00 in 0 W/m2
05:20 21.3 °F 17.8 °F 30.39 in Calm     86% 0.00 in 0 W/m2
05:25 21.3 °F 17.8 °F 30.40 in Calm     86% 0.00 in 0 W/m2
05:30 21.3 °F 17.8 °F 30.40 in Calm     86% 0.00 in 0 W/m2
05:35 21.3 °F 17.8 °F 30.40 in Calm     86% 0.00 in 0 W/m2
05:40 21.2 °F 17.7 °F 30.40 in Calm     86% 0.00 in 0 W/m2
05:45 21.1 °F 17.6 °F 30.40 in Calm     86% 0.00 in 0 W/m2
05:50 21 °F 17.5 °F 30.40 in Calm     86% 0.00 in 0 W/m2
05:55 20.9 °F 17.4 °F 30.40 in Calm     86% 0.00 in 0 W/m2
06:00 21 °F 17.5 °F 30.40 in Calm     86% 0.00 in 0 W/m2
06:05 21 °F 17.5 °F 30.40 in Calm     86% 0.00 in 0 W/m2
06:10 21.1 °F 17.6 °F 30.40 in Calm     86% 0.00 in 0 W/m2
06:15 21.1 °F 17.6 °F 30.40 in Calm     86% 0.00 in 0 W/m2
06:20 21.2 °F 17.7 °F 30.40 in Calm     86% 0.00 in 0 W/m2
06:25 21.2 °F 17.7 °F 30.40 in Calm   1 mph 86% 0.00 in 0 W/m2
06:30 21.3 °F 17.8 °F 30.40 in Calm     86% 0.00 in 0 W/m2
06:35 21.2 °F 17.7 °F 30.40 in Calm     86% 0.00 in 0 W/m2
06:40 21 °F 17.2 °F 30.39 in Calm     85% 0.00 in 0 W/m2
06:45 20.8 °F 17 °F 30.39 in Calm     85% 0.00 in 0 W/m2
06:50 20.7 °F 16.9 °F 30.39 in Calm     85% 0.00 in 0 W/m2
06:55 20.6 °F 16.8 °F 30.40 in Calm     85% 0.00 in 0 W/m2
07:00 20.5 °F 16.7 °F 30.39 in Calm     85% 0.00 in 0 W/m2
07:05 20.3 °F 16.5 °F 30.39 in Calm     85% 0.00 in 0 W/m2
07:10 20.2 °F 16.4 °F 30.39 in Calm     85% 0.00 in 0 W/m2
07:15 20.1 °F 16.3 °F 30.38 in Calm     85% 0.00 in 0 W/m2
07:20 20.1 °F 16.3 °F 30.38 in Calm     85% 0.00 in 0 W/m2
07:25 20 °F 16.2 °F 30.38 in Calm     85% 0.00 in 0 W/m2
07:30 20 °F 16.2 °F 30.39 in SE 1 mph 2 mph 85% 0.00 in 0 W/m2
07:35 20 °F 16.2 °F 30.39 in SE 1 mph 2 mph 85% 0.00 in 0 W/m2
07:40 20.1 °F 16.6 °F 30.38 in ESE 1 mph 2 mph 86% 0.00 in 0 W/m2
07:45 20.3 °F 16.8 °F 30.37 in East 2 mph 3 mph 86% 0.00 in 0 W/m2
07:50 20.4 °F 16.9 °F 30.36 in East 2 mph 2 mph 86% 0.00 in 0 W/m2
07:55 20.5 °F 17 °F 30.36 in ESE 1 mph 2 mph 86% 0.00 in 0 W/m2
08:00 20.6 °F 17.1 °F 30.35 in East 2 mph 2 mph 86% 0.00 in 0 W/m2
08:05 20.8 °F 17.3 °F 30.35 in East 2 mph 2 mph 86% 0.00 in 0 W/m2
08:10 20.8 °F 17.3 °F 30.35 in East 1 mph 1 mph 86% 0.00 in 0 W/m2
08:15 20.8 °F 17.3 °F 30.35 in East 1 mph 1 mph 86% 0.00 in 5 W/m2
08:20 20.9 °F 17.4 °F 30.34 in East 1 mph 1 mph 86% 0.00 in 7 W/m2
08:25 21 °F 17.5 °F 30.34 in East 1 mph 1 mph 86% 0.00 in 11 W/m2
08:30 21 °F 17.5 °F 30.33 in East 1 mph 1 mph 86% 0.00 in 16 W/m2
08:35 21.1 °F 17.6 °F 30.33 in Calm   1 mph 86% 0.00 in 21 W/m2
08:40 21.1 °F 17.6 °F 30.33 in Calm     86% 0.00 in 25 W/m2
08:45 21.2 °F 17.7 °F 30.33 in Calm   1 mph 86% 0.00 in 26 W/m2
08:50 21.3 °F 17.8 °F 30.33 in East 1 mph 1 mph 86% 0.00 in 30 W/m2
08:55 21.5 °F 18 °F 30.33 in East 1 mph 1 mph 86% 0.00 in 35 W/m2
09:00 21.7 °F 18.2 °F 30.32 in East 1 mph 1 mph 86% 0.00 in 39 W/m2
09:05 21.8 °F 18.3 °F 30.32 in East 1 mph 1 mph 86% 0.00 in 39 W/m2
09:10 21.9 °F 18.4 °F 30.32 in East 1 mph 2 mph 86% 0.00 in 42 W/m2
09:15 22 °F 18.5 °F 30.32 in East 1 mph 2 mph 86% 0.00 in 42 W/m2
09:20 22.1 °F 18.6 °F 30.32 in East 1 mph 1 mph 86% 0.00 in 44 W/m2
09:25 22.4 °F 18.8 °F 30.32 in East 1 mph 1 mph 86% 0.00 in 51 W/m2
09:30 22.7 °F 19.1 °F 30.32 in East 1 mph 1 mph 86% 0.00 in 54 W/m2
09:35 22.9 °F 19.3 °F 30.32 in East 1 mph 1 mph 86% 0.00 in 60 W/m2
09:40 23 °F 19.4 °F 30.33 in East 1 mph 1 mph 86% 0.00 in 67 W/m2
09:45 23.1 °F 19.5 °F 30.33 in Calm   1 mph 86% 0.00 in 70 W/m2
09:50 23.3 °F 19.7 °F 30.34 in Calm     86% 0.00 in 63 W/m2
09:55 23.4 °F 19.8 °F 30.34 in Calm     86% 0.00 in 62 W/m2
10:00 23.7 °F 20.1 °F 30.33 in Calm     86% 0.00 in 63 W/m2
10:05 24 °F 20.4 °F 30.33 in Calm     86% 0.00 in 65 W/m2
10:10 24.1 °F 20.5 °F 30.33 in Calm     86% 0.00 in 74 W/m2
10:15 24.4 °F 20.8 °F 30.32 in Calm   1 mph 86% 0.00 in 88 W/m2
10:20 24.6 °F 21 °F 30.31 in East 1 mph 1 mph 86% 0.00 in 97 W/m2
10:25 24.9 °F 21.3 °F 30.30 in ENE 1 mph 2 mph 86% 0.00 in 98 W/m2
10:30 25.2 °F 21.6 °F 30.31 in ENE 2 mph 2 mph 86% 0.00 in 104 W/m2
10:35 25.4 °F 21.8 °F 30.30 in ENE 2 mph 2 mph 86% 0.00 in 95 W/m2
10:40 25.7 °F 21.8 °F 30.30 in NE 2 mph 2 mph 85% 0.00 in 93 W/m2
10:45 26 °F 22.1 °F 30.30 in East 2 mph 2 mph 85% 0.00 in 121 W/m2
10:50 26.2 °F 22.3 °F 30.30 in ENE 2 mph 2 mph 85% 0.00 in 121 W/m2
10:55 26.4 °F 22.2 °F 30.30 in ENE 2 mph 2 mph 84% 0.00 in 100 W/m2
11:00 26.5 °F 22 °F 30.29 in ENE 3 mph 3 mph 83% 0.00 in 88 W/m2
11:05 26.7 °F 22.2 °F 30.30 in ENE 3 mph 3 mph 83% 0.00 in 88 W/m2
11:10 26.8 °F 22 °F 30.29 in ENE 2 mph 2 mph 82% 0.00 in 95 W/m2
11:15 26.9 °F 22.1 °F 30.29 in ENE 2 mph 2 mph 82% 0.00 in 104 W/m2
11:20 27.2 °F 22.4 °F 30.27 in ENE 2 mph 2 mph 82% 0.00 in 116 W/m2
11:25 27.4 °F 22.3 °F 30.27 in East 2 mph 3 mph 81% 0.00 in 113 W/m2
11:30 27.7 °F 22.6 °F 30.27 in East 2 mph 2 mph 81% 0.00 in 102 W/m2
11:35 27.8 °F 22.7 °F 30.26 in East 2 mph 2 mph 81% 0.00 in 105 W/m2
11:45 28.3 °F 22.9 °F 30.26 in East 2 mph 2 mph 80% 0.00 in 104 W/m2
11:50 28.4 °F 23 °F 30.25 in ENE 2 mph 3 mph 80% 0.00 in 105 W/m2
11:55 28.7 °F 23.3 °F 30.25 in ENE 2 mph 2 mph 80% 0.00 in 102 W/m2
12:00 28.8 °F 23.4 °F 30.24 in ENE 2 mph 2 mph 80% 0.00 in 109 W/m2
12:05 29 °F 23.6 °F 30.24 in ESE 1 mph 2 mph 80% 0.00 in 105 W/m2
12:10 29.2 °F 23.8 °F 30.23 in ESE 1 mph 1 mph 80% 0.00 in 120 W/m2
12:15 29.4 °F 24 °F 30.23 in ESE 1 mph 1 mph 80% 0.00 in 116 W/m2
12:20 29.5 °F 24.1 °F 30.22 in ENE 1 mph 2 mph 80% 0.00 in 109 W/m2
12:25 29.6 °F 24.2 °F 30.22 in ENE 1 mph 2 mph 80% 0.00 in 120 W/m2
12:30 29.9 °F 24.8 °F 30.21 in ENE 1 mph 1 mph 81% 0.00 in 123 W/m2
12:35 30.1 °F 25 °F 30.20 in ENE 2 mph 2 mph 81% 0.00 in 127 W/m2
12:40 30.2 °F 25.1 °F 30.19 in NE 2 mph 2 mph 81% 0.00 in 111 W/m2
12:45 30.2 °F 25.1 °F 30.19 in NE 2 mph 2 mph 81% 0.00 in 97 W/m2
12:50 30.4 °F 25.3 °F 30.18 in NE 1 mph 1 mph 81% 0.00 in 88 W/m2
12:55 30.6 °F 25.5 °F 30.17 in NE 2 mph 5 mph 81% 0.00 in 88 W/m2
13:00 30.7 °F 25.6 °F 30.17 in ENE 3 mph 4 mph 81% 0.00 in 84 W/m2
13:05 30.8 °F 25.7 °F 30.16 in East 3 mph 4 mph 81% 0.00 in 86 W/m2
13:10 30.9 °F 25.8 °F 30.16 in ENE 2 mph 3 mph 81% 0.00 in 86 W/m2
13:15 31 °F 26.1 °F 30.15 in ENE 3 mph 3 mph 82% 0.00 in 91 W/m2
13:20 31.2 °F 26.3 °F 30.15 in NE 3 mph 3 mph 82% 0.00 in 76 W/m2
13:25 31.2 °F 26.3 °F 30.14 in ENE 3 mph 3 mph 82% 0.00 in 77 W/m2
13:30 31.2 °F 26 °F 30.13 in East 3 mph 4 mph 81% 0.00 in 81 W/m2
13:35 31.3 °F 26.1 °F 30.13 in East 3 mph 4 mph 81% 0.00 in 86 W/m2
13:40 31.5 °F 26.3 °F 30.13 in ESE 3 mph 9 mph 81% 0.00 in 72 W/m2
13:45 31.6 °F 26.4 °F 30.12 in East 3 mph 9 mph 81% 0.00 in 83 W/m2
13:50 31.8 °F 26.3 °F 30.12 in ESE 4 mph 4 mph 80% 0.00 in 81 W/m2
13:55 31.9 °F 26.4 °F 30.11 in East 4 mph 4 mph 80% 0.00 in 86 W/m2
14:00 32.1 °F 26.6 °F 30.11 in ENE 4 mph 4 mph 80% 0.00 in 70 W/m2
14:05 32.1 °F 26.6 °F 30.11 in East 3 mph 6 mph 80% 0.00 in 67 W/m2
14:10 32.1 °F 26.6 °F 30.11 in East 3 mph 6 mph 80% 0.00 in 56 W/m2
14:15 32.1 °F 26.6 °F 30.11 in East 4 mph 6 mph 80% 0.00 in 49 W/m2
14:20 32.2 °F 26.4 °F 30.12 in ESE 3 mph 3 mph 79% 0.00 in 37 W/m2
14:25 32.1 °F 26.3 °F 30.12 in East 3 mph 3 mph 79% 0.00 in 33 W/m2
14:30 32.1 °F 26.3 °F 30.12 in East 3 mph 3 mph 79% 0.00 in 37 W/m2
14:35 32.1 °F 26.3 °F 30.12 in ENE 3 mph 4 mph 79% 0.00 in 39 W/m2
14:40 32.1 °F 26.3 °F 30.12 in ESE 3 mph 4 mph 79% 0.00 in 35 W/m2
14:45 32.2 °F 26.4 °F 30.12 in East 3 mph 4 mph 79% 0.00 in 32 W/m2
14:50 32.1 °F 26.3 °F 30.12 in East 3 mph 3 mph 79% 0.00 in 30 W/m2
14:55 32.1 °F 26.6 °F 30.13 in East 3 mph 3 mph 80% 0.00 in 28 W/m2
15:00 32.1 °F 26.6 °F 30.13 in SE 3 mph 3 mph 80% 0.00 in 26 W/m2
15:05 32.1 °F 26.6 °F 30.13 in ESE 3 mph 3 mph 80% 0.00 in 25 W/m2
15:10 32.1 °F 26.6 °F 30.12 in East 3 mph 3 mph 80% 0.00 in 23 W/m2
15:15 32.1 °F 26.6 °F 30.11 in East 2 mph 3 mph 80% 0.00 in 21 W/m2
15:20 32.1 °F 26.6 °F 30.11 in East 2 mph 2 mph 80% 0.00 in 21 W/m2
15:25 32.1 °F 26.6 °F 30.10 in East 3 mph 3 mph 80% 0.00 in 19 W/m2
15:30 32.1 °F 26.6 °F 30.09 in East 3 mph 3 mph 80% 0.00 in 18 W/m2
15:35 32.1 °F 26.6 °F 30.08 in ENE 3 mph 3 mph 80% 0.00 in 16 W/m2
15:40 32 °F 26.5 °F 30.06 in East 3 mph 3 mph 80% 0.00 in 12 W/m2
15:45 32 °F 26.5 °F 30.05 in ENE 3 mph 4 mph 80% 0.00 in 12 W/m2
15:50 32 °F 26.8 °F 30.03 in ENE 3 mph 4 mph 81% 0.00 in 12 W/m2
15:55 31.9 °F 26.7 °F 30.04 in East 3 mph 4 mph 81% 0.00 in 14 W/m2
16:00 31.8 °F 26.6 °F 30.06 in East 3 mph 3 mph 81% 0.00 in 12 W/m2
16:05 31.9 °F 27 °F 30.07 in East 2 mph 3 mph 82% 0.00 in 12 W/m2
16:10 31.9 °F 27 °F 30.06 in East 2 mph 2 mph 82% 0.00 in 11 W/m2
16:15 31.9 °F 27 °F 30.06 in ESE 2 mph 2 mph 82% 0.00 in 9 W/m2
16:20 31.9 °F 27 °F 30.06 in East 2 mph 2 mph 82% 0.00 in 9 W/m2
16:25 31.9 °F 27 °F 30.06 in East 2 mph 4 mph 82% 0.00 in 9 W/m2
16:30 31.9 °F 27 °F 30.06 in East 2 mph 4 mph 82% 0.00 in 7 W/m2
16:35 31.9 °F 27 °F 30.05 in ESE 2 mph 4 mph 82% 0.00 in 7 W/m2
16:40 31.9 °F 27 °F 30.04 in NE 2 mph 4 mph 82% 0.00 in 7 W/m2
16:45 31.9 °F 27 °F 30.03 in ENE 2 mph 6 mph 82% 0.00 in 5 W/m2
16:50 31.8 °F 26.9 °F 30.02 in East 3 mph 3 mph 82% 0.00 in 0 W/m2
16:55 31.9 °F 27.3 °F 30.01 in East 2 mph 3 mph 83% 0.00 in 0 W/m2
17:00 32 °F 27.7 °F 30.01 in East 2 mph 2 mph 84% 0.00 in 0 W/m2
17:05 32 °F 28 °F 30.01 in ENE 2 mph 4 mph 85% 0.00 in 0 W/m2
17:10 31.9 °F 27.9 °F 30.00 in ENE 2 mph 3 mph 85% 0.00 in 0 W/m2
17:15 31.9 °F 27.9 °F 29.99 in ENE 2 mph 3 mph 85% 0.00 in 0 W/m2
17:20 31.9 °F 27.9 °F 29.98 in NE 2 mph 3 mph 85% 0.00 in 0 W/m2
17:25 31.8 °F 28.1 °F 29.97 in ESE 3 mph 3 mph 86% 0.00 in 0 W/m2
17:30 31.7 °F 28 °F 29.97 in ENE 3 mph 3 mph 86% 0.00 in 0 W/m2
17:35 31.7 °F 28 °F 29.96 in ENE 3 mph 3 mph 86% 0.00 in 0 W/m2
17:40 31.6 °F 27.9 °F 29.95 in ENE 3 mph 3 mph 86% 0.00 in 0 W/m2
17:45 31.6 °F 27.9 °F 29.94 in NE 3 mph 5 mph 86% 0.00 in 0 W/m2
17:50 31.5 °F 27.8 °F 29.94 in ENE 3 mph 3 mph 86% 0.00 in 0 W/m2
17:55 31.5 °F 28.1 °F 29.94 in ESE 3 mph 6 mph 87% 0.00 in 0 W/m2
18:00 31.5 °F 28.1 °F 29.93 in ENE 3 mph 3 mph 87% 0.05 in 0 W/m2
18:05 31.5 °F 28.1 °F 29.93 in ENE 4 mph 4 mph 87% 0.05 in 0 W/m2
18:10 31.4 °F 28 °F 29.93 in East 4 mph 4 mph 87% 0.05 in 0 W/m2
18:15 31.4 °F 28 °F 29.93 in East 3 mph 4 mph 87% 0.00 in 0 W/m2
18:20 31.4 °F 28 °F 29.94 in ENE 3 mph 3 mph 87% 0.00 in 0 W/m2
18:25 31.4 °F 28 °F 29.94 in East 3 mph 3 mph 87% 0.00 in 0 W/m2
18:30 31.4 °F 28 °F 29.95 in East 3 mph 3 mph 87% 0.00 in 0 W/m2
18:35 31.4 °F 28 °F 29.96 in ENE 2 mph 3 mph 87% 0.00 in 0 W/m2
18:40 31.4 °F 28 °F 29.96 in ENE 1 mph 1 mph 87% 0.00 in 0 W/m2
18:45 31.4 °F 28 °F 29.95 in ENE 1 mph 2 mph 87% 0.00 in 0 W/m2
18:50 31.4 °F 28 °F 29.95 in ENE 1 mph 1 mph 87% 0.00 in 0 W/m2
18:55 31.4 °F 28 °F 29.95 in ENE 1 mph 1 mph 87% 0.05 in 0 W/m2
19:00 31.4 °F 28.3 °F 29.95 in ENE 2 mph 2 mph 88% 0.05 in 0 W/m2
19:05 31.4 °F 28.3 °F 29.95 in ENE 1 mph 2 mph 88% 0.07 in 0 W/m2
19:10 31.4 °F 28.3 °F 29.95 in ENE 1 mph 2 mph 88% 0.07 in 0 W/m2
19:15 31.4 °F 28.3 °F 29.95 in ENE 1 mph 2 mph 88% 0.05 in 0 W/m2
19:20 31.4 °F 28.3 °F 29.95 in ENE 1 mph 1 mph 88% 0.05 in 0 W/m2
19:25 31.4 °F 28.3 °F 29.94 in NNE 1 mph 3 mph 88% 0.06 in 0 W/m2
19:30 31.4 °F 28.3 °F 29.93 in NNE 1 mph 1 mph 88% 0.06 in 0 W/m2
19:35 31.4 °F 28.5 °F 29.93 in NNE 1 mph 1 mph 89% 0.07 in 0 W/m2
19:40 31.4 °F 28.5 °F 29.93 in North 1 mph 1 mph 89% 0.06 in 0 W/m2
19:45 31.5 °F 28.6 °F 29.92 in North 2 mph 2 mph 89% 0.06 in 0 W/m2
19:50 31.5 °F 28.6 °F 29.92 in North 2 mph 2 mph 89% 0.06 in 0 W/m2
19:55 31.4 °F 28.5 °F 29.92 in North 1 mph 2 mph 89% 0.04 in 0 W/m2
20:00 31.5 °F 28.6 °F 29.92 in NNW 1 mph 1 mph 89% 0.00 in 0 W/m2
20:05 31.5 °F 28.6 °F 29.92 in NE 1 mph 1 mph 89% 0.00 in 0 W/m2
20:10 31.5 °F 28.6 °F 29.92 in NNE 1 mph 1 mph 89% 0.00 in 0 W/m2
20:15 31.5 °F 28.9 °F 29.92 in NNE 1 mph 3 mph 90% 0.00 in 0 W/m2
20:20 31.5 °F 28.9 °F 29.92 in NNW 1 mph 3 mph 90% 0.04 in 0 W/m2
20:25 31.5 °F 28.9 °F 29.91 in NE 2 mph 3 mph 90% 0.04 in 0 W/m2
20:30 31.6 °F 29 °F 29.91 in North 2 mph 2 mph 90% 0.04 in 0 W/m2
20:35 31.6 °F 29 °F 29.91 in East 2 mph 2 mph 90% 0.00 in 0 W/m2
20:40 31.6 °F 29 °F 29.91 in North 2 mph 2 mph 90% 0.00 in 0 W/m2
20:45 31.6 °F 29 °F 29.90 in North 2 mph 2 mph 90% 0.00 in 0 W/m2
20:50 31.7 °F 29.1 °F 29.90 in North 2 mph 2 mph 90% 0.08 in 0 W/m2
20:55 31.7 °F 29.4 °F 29.89 in NE 2 mph 2 mph 91% 0.14 in 0 W/m2
21:00 31.8 °F 29.5 °F 29.89 in NE 2 mph 2 mph 91% 0.13 in 0 W/m2
21:05 31.8 °F 29.5 °F 29.89 in NNW 2 mph 2 mph 91% 0.12 in 0 W/m2
21:10 31.9 °F 29.6 °F 29.88 in NE 2 mph 2 mph 91% 0.11 in 0 W/m2
21:15 31.9 °F 29.6 °F 29.88 in NNE 2 mph 2 mph 91% 0.10 in 0 W/m2
21:20 31.9 °F 29.6 °F 29.88 in North 1 mph 1 mph 91% 0.09 in 0 W/m2
21:25 31.9 °F 29.6 °F 29.88 in ENE 1 mph 1 mph 91% 0.07 in 0 W/m2
21:30 31.9 °F 29.6 °F 29.87 in NE 2 mph 2 mph 91% 0.07 in 0 W/m2
21:35 32 °F 29.7 °F 29.87 in NE 2 mph 2 mph 91% 0.05 in 0 W/m2
21:40 32 °F 29.7 °F 29.87 in NNE 2 mph 2 mph 91% 0.04 in 0 W/m2
21:45 32.1 °F 29.8 °F 29.86 in North 1 mph 2 mph 91% 0.04 in 0 W/m2
21:50 32.1 °F 29.8 °F 29.86 in NNE 1 mph 2 mph 91% 0.05 in 0 W/m2
21:55 32.2 °F 29.9 °F 29.85 in East 1 mph 2 mph 91% 0.05 in 0 W/m2
22:00 32.2 °F 29.9 °F 29.85 in NNE 1 mph 1 mph 91% 0.06 in 0 W/m2
22:05 32.3 °F 30.2 °F 29.85 in NNE 1 mph 2 mph 92% 0.06 in 0 W/m2
22:10 32.3 °F 30.2 °F 29.84 in ENE 1 mph 2 mph 92% 0.05 in 0 W/m2
22:15 32.3 °F 30.2 °F 29.84 in NE 2 mph 2 mph 92% 0.05 in 0 W/m2
22:20 32.4 °F 30.3 °F 29.84 in ENE 2 mph 2 mph 92% 0.05 in 0 W/m2
22:25 32.4 °F 30.3 °F 29.84 in ENE 2 mph 2 mph 92% 0.04 in 0 W/m2
22:30 32.4 °F 30.3 °F 29.84 in East 3 mph 3 mph 92% 0.04 in 0 W/m2
22:35 32.5 °F 30.4 °F 29.84 in ENE 3 mph 3 mph 92% 0.04 in 0 W/m2
22:40 32.5 °F 30.4 °F 29.83 in ENE 3 mph 4 mph 92% 0.04 in 0 W/m2
22:45 32.5 °F 30.4 °F 29.83 in East 3 mph 4 mph 92% 0.00 in 0 W/m2
22:50 32.5 °F 30.4 °F 29.82 in NNE 2 mph 2 mph 92% 0.00 in 0 W/m2
22:55 32.5 °F 30.4 °F 29.81 in ENE 2 mph 4 mph 92% 0.00 in 0 W/m2
23:00 32.5 °F 30.4 °F 29.81 in ENE 3 mph 3 mph 92% 0.04 in 0 W/m2
23:05 32.4 °F 30.3 °F 29.81 in ENE 2 mph 4 mph 92% 0.04 in 0 W/m2
23:15 32.5 °F 30.4 °F 29.81 in NE 2 mph 2 mph 92% 0.05 in 0 W/m2
23:20 32.5 °F 30.4 °F 29.80 in ENE 2 mph 2 mph 92% 0.05 in 0 W/m2
23:25 32.5 °F 30.4 °F 29.80 in NNE 2 mph 2 mph 92% 0.00 in 0 W/m2
23:30 32.5 °F 30.4 °F 29.81 in NE 1 mph 3 mph 92% 0.00 in 0 W/m2
23:35 32.5 °F 30.4 °F 29.81 in NE 1 mph 3 mph 92% 0.00 in 0 W/m2
23:40 32.5 °F 30.4 °F 29.81 in ENE 2 mph 4 mph 92% 0.00 in 0 W/m2
23:45 32.5 °F 30.4 °F 29.81 in NNE 3 mph 3 mph 92% 0.00 in 0 W/m2
23:50 32.6 °F 30.5 °F 29.81 in NE 3 mph 3 mph 92% 0.00 in 0 W/m2
23:55 32.5 °F 30.4 °F 29.81 in ENE 3 mph 4 mph 92% 0.00 in 0 W/m2
Sand Point, Michigan, USA
Compliments of Weather Underground - 2 mb